createdAt,value
2019-04-29T00:01:28.572Z,3.53
2019-04-29T00:03:58.129Z,3.50
2019-04-29T00:06:27.571Z,3.67
2019-04-29T00:08:57.153Z,4.00
2019-04-29T00:11:26.733Z,3.57
2019-04-29T00:13:56.167Z,3.53
2019-04-29T00:16:40.834Z,3.57
2019-04-29T00:19:28.255Z,3.80
2019-04-29T00:21:58.297Z,3.50
2019-04-29T00:24:27.775Z,3.80
2019-04-29T00:26:57.292Z,4.03
2019-04-29T00:29:26.721Z,4.20
2019-04-29T00:31:56.172Z,4.73
2019-04-29T00:34:25.677Z,3.93
2019-04-29T00:37:03.731Z,4.00
2019-04-29T00:40:04.011Z,3.90
2019-04-29T00:42:42.243Z,4.17
2019-04-29T00:45:12.085Z,4.23
2019-04-29T00:47:41.609Z,4.27
2019-04-29T00:50:11.580Z,4.70
2019-04-29T00:52:41.070Z,4.33
2019-04-29T00:55:13.764Z,4.27
2019-04-29T00:57:43.237Z,4.77
2019-04-29T01:00:14.875Z,4.90
2019-04-29T01:02:44.380Z,4.70
2019-04-29T01:05:14.024Z,3.87
2019-04-29T01:07:43.564Z,4.27
2019-04-29T01:10:13.566Z,4.20
2019-04-29T01:12:43.115Z,4.87
2019-04-29T01:15:12.994Z,4.40
2019-04-29T01:17:42.490Z,4.60
2019-04-29T01:20:12.064Z,4.73
2019-04-29T01:22:42.398Z,4.57
2019-04-29T01:25:12.030Z,5.10
2019-04-29T01:27:48.703Z,5.07
2019-04-29T01:30:54.189Z,4.80
2019-04-29T01:33:24.271Z,5.50
2019-04-29T01:36:05.987Z,5.43
2019-04-29T01:38:35.461Z,5.20
2019-04-29T01:41:11.781Z,5.43
2019-04-29T01:44:03.975Z,5.40
2019-04-29T01:46:33.368Z,5.57
2019-04-29T01:49:02.947Z,5.20
2019-04-29T01:51:32.355Z,5.37
2019-04-29T01:54:01.840Z,5.63
2019-04-29T01:56:31.327Z,5.73
2019-04-29T01:59:00.804Z,6.40
2019-04-29T02:01:30.226Z,6.00
2019-04-29T02:03:59.657Z,6.03
2019-04-29T02:06:29.161Z,5.87
2019-04-29T02:08:58.938Z,6.20
2019-04-29T02:11:28.361Z,5.67
2019-04-29T02:13:57.878Z,6.03
2019-04-29T02:16:27.282Z,6.73
2019-04-29T02:18:56.696Z,7.10
2019-04-29T02:21:26.098Z,6.57
2019-04-29T02:24:01.437Z,7.10
2019-04-29T02:26:30.837Z,6.57
2019-04-29T02:29:00.288Z,7.70
2019-04-29T02:31:39.221Z,7.43
2019-04-29T02:34:09.193Z,7.70
2019-04-29T02:36:38.776Z,7.40
2019-04-29T02:39:34.939Z,7.40
2019-04-29T02:42:38.721Z,7.70
2019-04-29T02:45:13.187Z,8.03
2019-04-29T02:47:42.612Z,8.40
2019-04-29T02:50:12.163Z,8.37
2019-04-29T02:52:41.604Z,8.83
2019-04-29T02:55:12.983Z,8.30
2019-04-29T02:57:57.367Z,7.63
2019-04-29T03:00:51.735Z,8.07
2019-04-29T03:03:27.530Z,8.30
2019-04-29T03:06:01.290Z,7.80
2019-04-29T03:08:30.776Z,8.37
2019-04-29T03:11:00.275Z,8.53
2019-04-29T03:13:29.685Z,8.30
2019-04-29T03:15:59.965Z,8.27
2019-04-29T03:18:31.288Z,8.47
2019-04-29T03:21:06.256Z,9.73
2019-04-29T03:23:35.644Z,8.40
2019-04-29T03:26:05.211Z,8.47
2019-04-29T03:28:34.734Z,9.17
2019-04-29T03:31:04.279Z,9.30
2019-04-29T03:33:33.760Z,8.17
2019-04-29T03:36:03.360Z,9.10
2019-04-29T03:38:32.857Z,10.13
2019-04-29T03:41:02.297Z,9.80
2019-04-29T03:43:31.808Z,9.93
2019-04-29T03:46:01.252Z,10.10
2019-04-29T03:48:30.659Z,10.50
2019-04-29T03:51:00.075Z,9.97
2019-04-29T03:53:29.501Z,10.00
2019-04-29T03:55:59.060Z,10.13
2019-04-29T03:58:28.462Z,10.43
2019-04-29T04:01:11.634Z,10.20
2019-04-29T04:03:48.090Z,10.87
2019-04-29T04:06:24.389Z,10.73
2019-04-29T04:09:05.958Z,11.30
2019-04-29T04:11:28.918Z,12.03
2019-04-29T04:13:58.390Z,12.30
2019-04-29T04:16:45.623Z,11.77
2019-04-29T04:19:15.299Z,11.10
2019-04-29T04:21:45.019Z,12.23
2019-04-29T04:24:14.643Z,11.83
2019-04-29T04:26:44.146Z,12.63
2019-04-29T04:29:13.669Z,12.23
2019-04-29T04:31:43.097Z,12.73
2019-04-29T04:34:12.537Z,12.10
2019-04-29T04:36:42.228Z,12.90
2019-04-29T04:39:11.829Z,12.70
2019-04-29T04:41:41.265Z,13.47
2019-04-29T04:44:10.696Z,12.60
2019-04-29T04:46:40.165Z,11.80
2019-04-29T04:49:09.667Z,12.53
2019-04-29T04:51:39.169Z,12.83
2019-04-29T04:54:08.749Z,12.13
2019-04-29T04:56:38.194Z,13.47
2019-04-29T04:59:07.685Z,12.27
2019-04-29T05:01:37.112Z,13.47
2019-04-29T05:04:06.571Z,13.77
2019-04-29T05:06:36.189Z,13.63
2019-04-29T05:09:07.119Z,13.73
2019-04-29T05:11:36.558Z,14.10
2019-04-29T05:14:05.980Z,13.67
2019-04-29T05:16:35.413Z,12.87
2019-04-29T05:19:04.991Z,13.03
2019-04-29T05:21:34.519Z,13.53
2019-04-29T05:24:04.147Z,13.57
2019-04-29T05:26:33.585Z,13.70
2019-04-29T05:29:03.055Z,14.03
2019-04-29T05:31:32.564Z,13.60
2019-04-29T05:34:02.013Z,14.07
2019-04-29T05:36:43.701Z,13.97
2019-04-29T05:39:34.383Z,13.83
2019-04-29T05:42:07.649Z,13.37
2019-04-29T05:44:43.582Z,16.00
2019-04-29T05:47:26.090Z,12.97
2019-04-29T05:50:16.927Z,13.50
2019-04-29T05:52:53.397Z,13.97
2019-04-29T05:55:22.973Z,14.33
2019-04-29T05:57:55.826Z,14.07
2019-04-29T06:00:25.262Z,15.27
2019-04-29T06:02:54.736Z,14.23
2019-04-29T06:05:24.169Z,13.80
2019-04-29T06:07:56.124Z,13.40
2019-04-29T06:10:24.853Z,13.00
2019-04-29T06:12:54.421Z,13.33
2019-04-29T06:15:23.982Z,13.90
2019-04-29T06:17:53.774Z,13.60
2019-04-29T06:20:23.279Z,13.57
2019-04-29T06:22:52.722Z,13.20
2019-04-29T06:25:22.163Z,12.63
2019-04-29T06:27:51.634Z,12.77
2019-04-29T06:30:21.086Z,13.80
2019-04-29T06:32:50.706Z,13.40
2019-04-29T06:35:20.138Z,12.67
2019-04-29T06:37:49.570Z,13.17
2019-04-29T06:40:19.135Z,21.13
2019-04-29T06:42:49.504Z,17.43
2019-04-29T06:45:19.830Z,11.93
2019-04-29T06:47:49.303Z,11.70
2019-04-29T06:50:19.058Z,11.00
2019-04-29T06:52:48.631Z,10.70
2019-04-29T06:55:18.275Z,10.17
2019-04-29T06:57:47.719Z,10.80
2019-04-29T07:00:22.047Z,11.60
2019-04-29T07:02:49.960Z,11.50
2019-04-29T07:05:20.135Z,11.47
2019-04-29T07:07:49.596Z,11.07
2019-04-29T07:10:21.754Z,14.03
2019-04-29T07:12:50.503Z,11.43
2019-04-29T07:15:20.085Z,10.40
2019-04-29T07:17:49.600Z,9.50
2019-04-29T07:20:19.202Z,9.37
2019-04-29T07:22:48.657Z,8.97
2019-04-29T07:25:18.244Z,9.67
2019-04-29T07:27:47.819Z,8.77
2019-04-29T07:30:17.562Z,9.33
2019-04-29T07:32:48.935Z,9.37
2019-04-29T07:35:18.495Z,9.37
2019-04-29T07:37:47.943Z,9.87
2019-04-29T07:40:17.780Z,10.17
2019-04-29T07:42:47.201Z,9.50
2019-04-29T07:45:44.439Z,10.03
2019-04-29T07:48:13.234Z,10.67
2019-04-29T07:50:42.811Z,11.47
2019-04-29T07:53:12.410Z,11.90
2019-04-29T07:55:41.946Z,11.63
2019-04-29T07:58:11.430Z,12.83
2019-04-29T08:00:44.682Z,12.07
2019-04-29T08:03:12.262Z,12.90
2019-04-29T08:05:42.362Z,12.67
2019-04-29T08:08:16.517Z,13.17
2019-04-29T08:10:54.080Z,13.80
2019-04-29T08:13:15.430Z,15.00
2019-04-29T08:15:44.887Z,13.47
2019-04-29T08:18:16.310Z,13.23
2019-04-29T08:20:45.611Z,13.83
2019-04-29T08:23:15.248Z,13.43
2019-04-29T08:25:44.737Z,14.40
2019-04-29T08:28:14.511Z,13.70
2019-04-29T08:30:45.850Z,12.83
2019-04-29T08:33:15.447Z,14.30
2019-04-29T08:35:46.700Z,19.90
2019-04-29T08:38:16.061Z,14.47
2019-04-29T08:40:50.228Z,14.97
2019-04-29T08:43:38.884Z,14.50
2019-04-29T08:46:14.635Z,15.27
2019-04-29T08:48:45.856Z,15.07
2019-04-29T08:51:15.473Z,14.73
2019-04-29T08:53:44.955Z,14.77
2019-04-29T08:56:14.552Z,13.47
2019-04-29T08:58:48.849Z,13.60
2019-04-29T09:01:15.276Z,13.93
2019-04-29T09:03:44.799Z,13.70
2019-04-29T09:06:14.425Z,13.87
2019-04-29T09:08:54.670Z,14.37
2019-04-29T09:11:18.301Z,13.97
2019-04-29T09:13:47.854Z,14.50
2019-04-29T09:16:17.412Z,14.20
2019-04-29T09:18:46.868Z,14.13
2019-04-29T09:21:16.394Z,14.03
2019-04-29T09:23:45.908Z,15.20
2019-04-29T09:26:24.712Z,14.43
2019-04-29T09:28:54.375Z,15.03
2019-04-29T09:31:25.336Z,14.43
2019-04-29T09:34:06.082Z,15.27
2019-04-29T09:36:28.798Z,13.17
2019-04-29T09:38:57.754Z,13.60
2019-04-29T09:41:34.975Z,13.23
2019-04-29T09:44:21.818Z,13.73
2019-04-29T09:46:51.329Z,14.67
2019-04-29T09:49:20.971Z,13.63
2019-04-29T09:51:50.487Z,14.57
2019-04-29T09:54:20.176Z,13.20
2019-04-29T09:56:50.777Z,13.17
2019-04-29T09:59:28.256Z,13.37
2019-04-29T10:02:20.409Z,13.70
2019-04-29T10:05:00.451Z,13.10
2019-04-29T10:07:30.505Z,16.53
2019-04-29T10:10:02.384Z,14.23
2019-04-29T10:12:31.668Z,14.17
2019-04-29T10:15:01.323Z,13.40
2019-04-29T10:17:38.642Z,13.03
2019-04-29T10:20:16.123Z,12.87
2019-04-29T10:22:45.738Z,13.27
2019-04-29T10:25:15.591Z,13.23
2019-04-29T10:27:45.259Z,14.37
2019-04-29T10:30:17.939Z,12.17
2019-04-29T10:32:47.542Z,12.97
2019-04-29T10:35:17.251Z,12.93
2019-04-29T10:37:46.722Z,13.77
2019-04-29T10:40:29.762Z,12.53
2019-04-29T10:43:11.309Z,11.80
2019-04-29T10:46:00.658Z,12.60
2019-04-29T10:48:34.446Z,14.30
2019-04-29T10:51:05.114Z,12.93
2019-04-29T10:53:35.210Z,12.17
2019-04-29T10:56:05.660Z,12.93
2019-04-29T10:58:35.999Z,12.77
2019-04-29T11:01:43.547Z,12.53
2019-04-29T11:04:13.210Z,11.37
2019-04-29T11:06:44.115Z,11.80
2019-04-29T11:09:31.789Z,11.93
2019-04-29T11:12:03.157Z,12.07
2019-04-29T11:14:37.208Z,11.47
2019-04-29T11:17:04.452Z,11.50
2019-04-29T11:19:35.063Z,11.17
2019-04-29T11:22:05.541Z,10.97
2019-04-29T11:24:44.213Z,11.03
2019-04-29T11:27:18.162Z,11.13
2019-04-29T11:29:47.670Z,10.53
2019-04-29T11:32:29.163Z,10.83
2019-04-29T11:35:06.095Z,10.20
2019-04-29T11:37:35.763Z,10.63
2019-04-29T11:40:05.545Z,10.30
2019-04-29T11:42:36.819Z,10.47
2019-04-29T11:45:09.163Z,10.60
2019-04-29T11:47:38.744Z,10.67
2019-04-29T11:50:18.308Z,9.97
2019-04-29T11:52:47.969Z,11.17
2019-04-29T11:55:18.493Z,10.23
2019-04-29T11:57:53.529Z,9.77
2019-04-29T12:00:45.405Z,9.70
2019-04-29T12:03:18.940Z,9.50
2019-04-29T12:05:57.907Z,10.00
2019-04-29T12:08:27.465Z,10.00
2019-04-29T12:11:06.717Z,10.20
2019-04-29T12:13:58.912Z,9.63
2019-04-29T12:16:38.487Z,11.27
2019-04-29T12:19:12.833Z,10.27
2019-04-29T12:21:42.450Z,10.83
2019-04-29T12:24:12.492Z,10.20
2019-04-29T12:26:44.230Z,9.40
2019-04-29T12:29:17.632Z,9.13
2019-04-29T12:32:02.399Z,10.33
2019-04-29T12:34:51.232Z,9.47
2019-04-29T12:37:39.954Z,12.23
2019-04-29T12:40:29.632Z,10.37
2019-04-29T12:43:17.687Z,9.10
2019-04-29T12:45:55.122Z,11.63
2019-04-29T12:48:25.358Z,9.40
2019-04-29T12:50:57.457Z,10.10
2019-04-29T12:53:26.362Z,9.77
2019-04-29T12:55:56.958Z,9.70
2019-04-29T12:58:26.602Z,9.10
2019-04-29T13:01:01.231Z,9.10
2019-04-29T13:03:49.018Z,9.50
2019-04-29T13:06:38.734Z,9.40
2019-04-29T13:09:16.986Z,9.13
2019-04-29T13:11:45.502Z,9.03
2019-04-29T13:14:07.831Z,9.37
2019-04-29T13:16:55.783Z,8.70
2019-04-29T13:20:02.271Z,8.90
2019-04-29T13:22:29.443Z,8.73
2019-04-29T13:24:58.973Z,9.60
2019-04-29T13:27:28.597Z,9.40
2019-04-29T13:29:58.317Z,10.57
2019-04-29T13:32:29.833Z,10.10
2019-04-29T13:35:10.894Z,8.77
2019-04-29T13:37:37.397Z,8.73
2019-04-29T13:40:08.733Z,12.20
2019-04-29T13:42:38.504Z,9.47
2019-04-29T13:45:13.506Z,9.40
2019-04-29T13:47:55.629Z,10.10
2019-04-29T13:50:47.262Z,8.37
2019-04-29T13:53:18.588Z,8.40
2019-04-29T13:55:49.910Z,9.43
2019-04-29T13:58:22.142Z,10.40
2019-04-29T14:01:00.072Z,11.17
2019-04-29T14:03:35.006Z,8.37
2019-04-29T14:06:06.847Z,10.97
2019-04-29T14:08:36.463Z,9.03
2019-04-29T14:11:06.079Z,8.40
2019-04-29T14:13:38.999Z,11.03
2019-04-29T14:16:07.724Z,9.47
2019-04-29T14:18:38.178Z,9.17
2019-04-29T14:21:07.914Z,8.97
2019-04-29T14:23:39.614Z,9.37
2019-04-29T14:26:09.135Z,7.47
2019-04-29T14:28:38.893Z,7.83
2019-04-29T14:31:08.488Z,7.50
2019-04-29T14:33:43.238Z,7.73
2019-04-29T14:36:12.865Z,8.17
2019-04-29T14:38:42.677Z,7.27
2019-04-29T14:41:14.375Z,7.70
2019-04-29T14:43:55.124Z,7.60
2019-04-29T14:46:36.497Z,7.50
2019-04-29T14:49:13.007Z,7.33
2019-04-29T14:51:42.791Z,7.37
2019-04-29T14:54:12.466Z,7.17
2019-04-29T14:56:41.976Z,7.27
2019-04-29T14:59:11.495Z,6.40
2019-04-29T15:01:47.124Z,6.33
2019-04-29T15:04:19.567Z,6.03
2019-04-29T15:07:08.539Z,6.20
2019-04-29T15:09:55.889Z,6.70
2019-04-29T15:13:11.930Z,6.50
2019-04-29T15:16:04.289Z,5.53
2019-04-29T15:18:48.373Z,6.10
2019-04-29T15:21:32.418Z,5.70
2019-04-29T15:24:01.798Z,6.13
2019-04-29T15:26:31.336Z,6.13
2019-04-29T15:29:01.004Z,4.83
2019-04-29T15:31:30.652Z,5.67
2019-04-29T15:34:00.350Z,5.70
2019-04-29T15:36:30.715Z,5.83
2019-04-29T15:39:09.637Z,5.07
2019-04-29T15:41:34.202Z,6.00
2019-04-29T15:44:07.422Z,5.07
2019-04-29T15:46:46.300Z,5.30
2019-04-29T15:49:06.600Z,5.63
2019-04-29T15:51:36.371Z,5.03
2019-04-29T15:54:09.236Z,4.57
2019-04-29T15:56:38.713Z,5.17
2019-04-29T15:59:20.756Z,6.03
2019-04-29T16:01:50.327Z,5.50
2019-04-29T16:04:27.809Z,4.83
2019-04-29T16:07:17.666Z,4.93
2019-04-29T16:10:09.093Z,5.40
2019-04-29T16:12:50.965Z,5.13
2019-04-29T16:15:17.151Z,4.40
2019-04-29T16:17:46.588Z,4.33
2019-04-29T16:20:16.307Z,4.90
2019-04-29T16:22:45.894Z,5.10
2019-04-29T16:25:15.574Z,5.27
2019-04-29T16:27:51.441Z,4.73
2019-04-29T16:30:18.909Z,4.20
2019-04-29T16:32:48.507Z,4.93
2019-04-29T16:35:23.194Z,4.17
2019-04-29T16:37:49.181Z,4.13
2019-04-29T16:40:19.010Z,5.00
2019-04-29T16:43:00.376Z,4.93
2019-04-29T16:46:07.577Z,4.77
2019-04-29T16:48:37.152Z,4.07
2019-04-29T16:51:13.786Z,4.00
2019-04-29T16:53:37.879Z,3.43
2019-04-29T16:56:07.430Z,3.27
2019-04-29T16:58:37.063Z,4.27
2019-04-29T17:01:06.701Z,3.60
2019-04-29T17:03:36.218Z,3.33
2019-04-29T17:06:05.922Z,3.80
2019-04-29T17:09:03.027Z,3.50
2019-04-29T17:11:27.898Z,3.00
2019-04-29T17:13:57.372Z,7.10
2019-04-29T17:16:28.532Z,4.70
2019-04-29T17:18:58.310Z,3.60
2019-04-29T17:21:27.958Z,4.13
2019-04-29T17:23:57.384Z,3.97
2019-04-29T17:26:33.912Z,3.00
2019-04-29T17:29:38.322Z,4.23
2019-04-29T17:32:11.019Z,3.73
2019-04-29T17:34:58.083Z,3.03
2019-04-29T17:37:13.100Z,3.43
2019-04-29T17:39:42.782Z,3.00
2019-04-29T17:42:12.212Z,3.70
2019-04-29T17:44:44.356Z,3.47
2019-04-29T17:47:29.145Z,3.57
2019-04-29T17:50:13.493Z,3.90
2019-04-29T17:52:43.312Z,4.10
2019-04-29T17:55:18.469Z,3.90
2019-04-29T17:57:56.249Z,4.93
2019-04-29T18:00:54.491Z,3.53
2019-04-29T18:03:41.606Z,2.90
2019-04-29T18:06:30.708Z,3.10
2019-04-29T18:09:28.984Z,3.20
2019-04-29T18:12:01.127Z,2.87
2019-04-29T18:14:37.200Z,3.17
2019-04-29T18:17:01.878Z,5.20
2019-04-29T18:19:53.259Z,2.90
2019-04-29T18:22:38.951Z,2.90
2019-04-29T18:25:14.380Z,2.93
2019-04-29T18:27:45.074Z,3.57
2019-04-29T18:30:18.532Z,3.20
2019-04-29T18:32:47.784Z,3.03
2019-04-29T18:35:17.435Z,2.80
2019-04-29T18:37:46.909Z,2.57
2019-04-29T18:40:16.733Z,2.50
2019-04-29T18:42:48.386Z,2.60
2019-04-29T18:45:17.464Z,2.67
2019-04-29T18:47:46.976Z,3.03
2019-04-29T18:50:16.493Z,3.30
2019-04-29T18:52:46.006Z,2.70
2019-04-29T18:55:15.534Z,2.90
2019-04-29T18:57:45.028Z,3.37
2019-04-29T19:00:19.796Z,2.97
2019-04-29T19:02:52.467Z,4.33
2019-04-29T19:05:26.327Z,3.27
2019-04-29T19:08:10.892Z,3.27
2019-04-29T19:10:34.452Z,2.63
2019-04-29T19:13:00.631Z,2.83
2019-04-29T19:15:29.764Z,4.47
2019-04-29T19:18:01.887Z,2.57
2019-04-29T19:20:30.354Z,2.73
2019-04-29T19:23:08.271Z,3.20
2019-04-29T19:25:31.124Z,2.70
2019-04-29T19:28:11.820Z,3.20
2019-04-29T19:30:31.840Z,3.23
2019-04-29T19:33:01.855Z,3.03
2019-04-29T19:35:34.588Z,3.13
2019-04-29T19:38:02.700Z,2.80
2019-04-29T19:40:38.927Z,3.03
2019-04-29T19:43:03.255Z,2.90
2019-04-29T19:45:32.719Z,3.20
2019-04-29T19:48:02.195Z,2.90
2019-04-29T19:50:31.819Z,2.80
2019-04-29T19:53:04.919Z,2.70
2019-04-29T19:55:33.159Z,2.57
2019-04-29T19:58:06.280Z,2.70
2019-04-29T20:00:38.339Z,3.10
2019-04-29T20:03:20.165Z,3.07
2019-04-29T20:05:46.463Z,2.80
2019-04-29T20:08:37.426Z,3.03
2019-04-29T20:10:51.267Z,2.80
2019-04-29T20:13:30.685Z,5.03
2019-04-29T20:16:13.117Z,3.40
2019-04-29T20:18:58.754Z,3.23
2019-04-29T20:21:26.428Z,2.57
2019-04-29T20:23:53.371Z,3.13
2019-04-29T20:26:29.112Z,2.90
2019-04-29T20:28:55.669Z,3.10
2019-04-29T20:31:26.055Z,3.03
2019-04-29T20:33:58.501Z,2.70
2019-04-29T20:36:38.162Z,2.70
2019-04-29T20:38:58.310Z,2.90
2019-04-29T20:41:40.338Z,2.67
2019-04-29T20:44:00.949Z,2.93
2019-04-29T20:46:44.563Z,3.07
2019-04-29T20:49:01.545Z,3.57
2019-04-29T20:51:47.826Z,2.90
2019-04-29T20:54:09.019Z,2.80
2019-04-29T20:56:39.892Z,3.10
2019-04-29T20:59:12.835Z,3.93
2019-04-29T21:01:44.731Z,3.97
2019-04-29T21:04:29.800Z,3.83
2019-04-29T21:06:59.151Z,3.10
2019-04-29T21:09:16.947Z,2.77
2019-04-29T21:12:00.165Z,2.93
2019-04-29T21:14:51.839Z,3.30
2019-04-29T21:17:30.698Z,2.97
2019-04-29T21:19:53.208Z,3.20
2019-04-29T21:22:25.466Z,2.70
2019-04-29T21:24:55.089Z,3.27
2019-04-29T21:27:26.021Z,2.93
2019-04-29T21:29:55.779Z,2.70
2019-04-29T21:32:25.905Z,2.87
2019-04-29T21:35:19.788Z,3.03
2019-04-29T21:38:06.780Z,2.90
2019-04-29T21:40:41.661Z,2.50
2019-04-29T21:43:17.581Z,2.70
2019-04-29T21:45:48.378Z,2.93
2019-04-29T21:48:17.307Z,3.30
2019-04-29T21:50:46.812Z,3.20
2019-04-29T21:53:16.325Z,3.13
2019-04-29T21:55:45.933Z,2.93
2019-04-29T21:58:15.431Z,3.23
2019-04-29T22:00:45.495Z,3.27
2019-04-29T22:03:15.497Z,2.80
2019-04-29T22:05:45.242Z,2.93
2019-04-29T22:08:20.747Z,3.27
2019-04-29T22:10:47.717Z,3.33
2019-04-29T22:13:17.386Z,2.93
2019-04-29T22:15:46.985Z,2.93
2019-04-29T22:18:18.105Z,2.97
2019-04-29T22:20:47.952Z,3.17
2019-04-29T22:23:17.585Z,3.27
2019-04-29T22:25:47.284Z,3.20
2019-04-29T22:28:19.683Z,3.43
2019-04-29T22:30:49.919Z,2.80
2019-04-29T22:33:19.674Z,3.27
2019-04-29T22:35:49.099Z,3.60
2019-04-29T22:38:18.904Z,3.13
2019-04-29T22:40:49.342Z,3.37
2019-04-29T22:43:40.373Z,2.80
2019-04-29T22:46:10.559Z,3.37
2019-04-29T22:48:40.625Z,3.27
2019-04-29T22:51:15.245Z,3.20
2019-04-29T22:53:48.169Z,3.50
2019-04-29T22:56:16.613Z,2.97
2019-04-29T22:58:47.422Z,3.27
2019-04-29T23:01:17.731Z,3.00
2019-04-29T23:03:47.458Z,3.10
2019-04-29T23:06:16.935Z,3.20
2019-04-29T23:08:46.352Z,3.37
2019-04-29T23:11:15.769Z,3.10
2019-04-29T23:13:46.172Z,3.67
2019-04-29T23:16:16.487Z,3.63
2019-04-29T23:18:45.993Z,3.40
2019-04-29T23:21:43.403Z,3.20
2019-04-29T23:24:22.017Z,3.23
2019-04-29T23:26:51.513Z,3.60
2019-04-29T23:29:20.969Z,3.40
2019-04-29T23:31:50.375Z,3.30
2019-04-29T23:34:19.848Z,3.40
2019-04-29T23:36:50.136Z,3.33
2019-04-29T23:39:19.771Z,3.57
2019-04-29T23:41:49.198Z,3.50
2019-04-29T23:44:18.691Z,3.67
2019-04-29T23:46:48.778Z,3.37
2019-04-29T23:49:18.201Z,3.60
2019-04-29T23:51:47.630Z,3.33
2019-04-29T23:54:17.069Z,3.50
2019-04-29T23:57:07.456Z,3.43
2019-04-29T23:59:38.598Z,3.20
